sensor_id;sensor_type;location;lat;lon;timestamp;temperature;humidity
39677;DHT22;27789;50.840;4.386;2023-06-22T00:01:01;22.50;99.90
39677;DHT22;27789;50.840;4.386;2023-06-22T00:03:27;22.50;99.90
39677;DHT22;27789;50.840;4.386;2023-06-22T00:05:53;22.50;99.90
39677;DHT22;27789;50.840;4.386;2023-06-22T00:08:18;22.50;99.90
39677;DHT22;27789;50.840;4.386;2023-06-22T00:10:44;22.50;99.90
39677;DHT22;27789;50.840;4.386;2023-06-22T00:13:10;22.40;99.90
39677;DHT22;27789;50.840;4.386;2023-06-22T00:15:36;22.40;99.90
39677;DHT22;27789;50.840;4.386;2023-06-22T00:18:02;22.40;99.90
39677;DHT22;27789;50.840;4.386;2023-06-22T00:20:28;22.40;99.90
39677;DHT22;27789;50.840;4.386;2023-06-22T00:22:54;22.40;99.90
39677;DHT22;27789;50.840;4.386;2023-06-22T00:25:20;22.40;99.90
39677;DHT22;27789;50.840;4.386;2023-06-22T00:27:46;22.40;99.90
39677;DHT22;27789;50.840;4.386;2023-06-22T00:30:11;22.40;99.90
39677;DHT22;27789;50.840;4.386;2023-06-22T00:32:37;22.40;99.90
39677;DHT22;27789;50.840;4.386;2023-06-22T00:35:02;22.40;99.90
39677;DHT22;27789;50.840;4.386;2023-06-22T00:37:28;22.30;99.90
39677;DHT22;27789;50.840;4.386;2023-06-22T00:39:55;22.30;99.90
39677;DHT22;27789;50.840;4.386;2023-06-22T00:42:20;22.40;99.90
39677;DHT22;27789;50.840;4.386;2023-06-22T00:44:46;22.40;99.90
39677;DHT22;27789;50.840;4.386;2023-06-22T00:47:13;22.30;99.90
39677;DHT22;27789;50.840;4.386;2023-06-22T00:49:39;22.40;99.90
39677;DHT22;27789;50.840;4.386;2023-06-22T00:52:05;22.40;99.90
39677;DHT22;27789;50.840;4.386;2023-06-22T00:54:37;22.40;99.90
39677;DHT22;27789;50.840;4.386;2023-06-22T00:57:03;22.30;99.90
39677;DHT22;27789;50.840;4.386;2023-06-22T00:59:28;22.30;99.90
39677;DHT22;27789;50.840;4.386;2023-06-22T01:01:54;22.30;99.90
39677;DHT22;27789;50.840;4.386;2023-06-22T01:04:19;22.30;99.90
39677;DHT22;27789;50.840;4.386;2023-06-22T01:06:54;22.30;99.90
39677;DHT22;27789;50.840;4.386;2023-06-22T01:09:22;22.30;99.90
39677;DHT22;27789;50.840;4.386;2023-06-22T01:11:53;22.30;99.90
39677;DHT22;27789;50.840;4.386;2023-06-22T01:16:56;22.30;99.90
39677;DHT22;27789;50.840;4.386;2023-06-22T01:19:29;22.30;99.90
39677;DHT22;27789;50.840;4.386;2023-06-22T01:21:59;22.20;99.90
39677;DHT22;27789;50.840;4.386;2023-06-22T01:24:33;22.20;99.90
39677;DHT22;27789;50.840;4.386;2023-06-22T01:29:34;22.20;99.90
39677;DHT22;27789;50.840;4.386;2023-06-22T01:32:01;22.20;99.90
39677;DHT22;27789;50.840;4.386;2023-06-22T01:34:29;22.20;99.90
39677;DHT22;27789;50.840;4.386;2023-06-22T01:36:54;22.20;99.90
39677;DHT22;27789;50.840;4.386;2023-06-22T01:39:20;22.10;99.90
39677;DHT22;27789;50.840;4.386;2023-06-22T01:41:47;22.00;99.90
39677;DHT22;27789;50.840;4.386;2023-06-22T01:44:13;22.00;99.90
39677;DHT22;27789;50.840;4.386;2023-06-22T01:46:38;22.00;99.90
39677;DHT22;27789;50.840;4.386;2023-06-22T01:49:05;22.00;99.90
39677;DHT22;27789;50.840;4.386;2023-06-22T01:51:31;22.00;99.90
39677;DHT22;27789;50.840;4.386;2023-06-22T01:53:56;21.90;99.90
39677;DHT22;27789;50.840;4.386;2023-06-22T01:56:22;21.90;99.90
39677;DHT22;27789;50.840;4.386;2023-06-22T01:58:50;21.90;99.90
39677;DHT22;27789;50.840;4.386;2023-06-22T02:01:17;21.80;99.90
39677;DHT22;27789;50.840;4.386;2023-06-22T02:03:53;21.80;99.90
39677;DHT22;27789;50.840;4.386;2023-06-22T02:06:25;21.80;99.90
39677;DHT22;27789;50.840;4.386;2023-06-22T02:08:55;21.80;99.90
39677;DHT22;27789;50.840;4.386;2023-06-22T02:11:21;21.80;99.90
39677;DHT22;27789;50.840;4.386;2023-06-22T02:13:47;21.80;99.90
39677;DHT22;27789;50.840;4.386;2023-06-22T02:16:14;21.80;99.90
39677;DHT22;27789;50.840;4.386;2023-06-22T02:18:45;21.70;99.90
39677;DHT22;27789;50.840;4.386;2023-06-22T02:21:11;21.60;99.90
39677;DHT22;27789;50.840;4.386;2023-06-22T02:23:37;21.60;99.90
39677;DHT22;27789;50.840;4.386;2023-06-22T02:26:02;21.50;99.90
39677;DHT22;27789;50.840;4.386;2023-06-22T02:28:28;21.50;99.90
39677;DHT22;27789;50.840;4.386;2023-06-22T02:30:54;21.50;99.90
39677;DHT22;27789;50.840;4.386;2023-06-22T02:33:19;21.50;99.90
39677;DHT22;27789;50.840;4.386;2023-06-22T02:35:45;21.50;99.90
39677;DHT22;27789;50.840;4.386;2023-06-22T02:38:14;21.50;99.90
39677;DHT22;27789;50.840;4.386;2023-06-22T02:40:39;21.50;99.90
39677;DHT22;27789;50.840;4.386;2023-06-22T02:43:05;21.40;99.90
39677;DHT22;27789;50.840;4.386;2023-06-22T02:45:30;21.40;99.90
39677;DHT22;27789;50.840;4.386;2023-06-22T02:47:56;21.40;99.90
39677;DHT22;27789;50.840;4.386;2023-06-22T02:50:22;21.40;99.90
39677;DHT22;27789;50.840;4.386;2023-06-22T02:52:47;21.40;99.90
39677;DHT22;27789;50.840;4.386;2023-06-22T02:55:12;21.30;99.90
39677;DHT22;27789;50.840;4.386;2023-06-22T02:57:38;21.30;99.90
39677;DHT22;27789;50.840;4.386;2023-06-22T03:00:09;21.30;99.90
39677;DHT22;27789;50.840;4.386;2023-06-22T03:02:42;21.30;99.90
39677;DHT22;27789;50.840;4.386;2023-06-22T03:05:08;21.30;99.90
39677;DHT22;27789;50.840;4.386;2023-06-22T03:07:42;21.20;99.90
39677;DHT22;27789;50.840;4.386;2023-06-22T03:10:10;21.20;99.90
39677;DHT22;27789;50.840;4.386;2023-06-22T03:12:37;21.20;99.90
39677;DHT22;27789;50.840;4.386;2023-06-22T03:15:04;21.20;99.90
39677;DHT22;27789;50.840;4.386;2023-06-22T03:17:29;21.20;99.90
39677;DHT22;27789;50.840;4.386;2023-06-22T03:19:55;21.10;99.90
39677;DHT22;27789;50.840;4.386;2023-06-22T03:22:20;21.20;99.90
39677;DHT22;27789;50.840;4.386;2023-06-22T03:24:46;21.20;99.90
39677;DHT22;27789;50.840;4.386;2023-06-22T03:27:11;21.20;99.90
39677;DHT22;27789;50.840;4.386;2023-06-22T03:29:37;21.10;99.90
39677;DHT22;27789;50.840;4.386;2023-06-22T03:32:02;21.10;99.90
39677;DHT22;27789;50.840;4.386;2023-06-22T03:34:30;21.10;99.90
39677;DHT22;27789;50.840;4.386;2023-06-22T03:36:58;21.10;99.90
39677;DHT22;27789;50.840;4.386;2023-06-22T03:39:24;21.10;99.90
39677;DHT22;27789;50.840;4.386;2023-06-22T03:41:49;21.10;99.90
39677;DHT22;27789;50.840;4.386;2023-06-22T03:44:15;21.00;99.90
39677;DHT22;27789;50.840;4.386;2023-06-22T03:46:40;21.10;99.90
39677;DHT22;27789;50.840;4.386;2023-06-22T03:49:06;21.10;99.90
39677;DHT22;27789;50.840;4.386;2023-06-22T03:51:32;21.10;99.90
39677;DHT22;27789;50.840;4.386;2023-06-22T03:53:58;21.10;99.90
39677;DHT22;27789;50.840;4.386;2023-06-22T03:56:23;21.20;99.90
39677;DHT22;27789;50.840;4.386;2023-06-22T03:58:49;21.20;99.90
39677;DHT22;27789;50.840;4.386;2023-06-22T04:01:14;21.20;99.90
39677;DHT22;27789;50.840;4.386;2023-06-22T04:03:42;21.20;99.90
39677;DHT22;27789;50.840;4.386;2023-06-22T04:06:07;21.30;99.90
39677;DHT22;27789;50.840;4.386;2023-06-22T04:08:33;21.30;99.90
39677;DHT22;27789;50.840;4.386;2023-06-22T04:10:58;21.30;99.90
39677;DHT22;27789;50.840;4.386;2023-06-22T04:13:24;21.30;99.90
39677;DHT22;27789;50.840;4.386;2023-06-22T04:15:49;21.30;99.90
39677;DHT22;27789;50.840;4.386;2023-06-22T04:18:15;21.30;99.90
39677;DHT22;27789;50.840;4.386;2023-06-22T04:20:40;21.30;99.90
39677;DHT22;27789;50.840;4.386;2023-06-22T04:23:06;21.30;99.90
39677;DHT22;27789;50.840;4.386;2023-06-22T04:25:31;21.30;99.90
39677;DHT22;27789;50.840;4.386;2023-06-22T04:27:57;21.30;99.90
39677;DHT22;27789;50.840;4.386;2023-06-22T04:30:22;21.30;99.90
39677;DHT22;27789;50.840;4.386;2023-06-22T04:32:48;21.20;99.90
39677;DHT22;27789;50.840;4.386;2023-06-22T04:35:21;21.30;99.90
39677;DHT22;27789;50.840;4.386;2023-06-22T04:37:47;21.30;99.90
39677;DHT22;27789;50.840;4.386;2023-06-22T04:40:15;21.30;99.90
39677;DHT22;27789;50.840;4.386;2023-06-22T04:42:40;21.30;99.90
39677;DHT22;27789;50.840;4.386;2023-06-22T04:45:06;21.30;99.90
39677;DHT22;27789;50.840;4.386;2023-06-22T04:47:31;21.30;99.90
39677;DHT22;27789;50.840;4.386;2023-06-22T04:49:57;21.30;99.90
39677;DHT22;27789;50.840;4.386;2023-06-22T04:52:22;21.40;99.90
39677;DHT22;27789;50.840;4.386;2023-06-22T04:54:49;21.30;99.90
39677;DHT22;27789;50.840;4.386;2023-06-22T04:57:20;21.30;99.90
39677;DHT22;27789;50.840;4.386;2023-06-22T04:59:46;21.30;99.90
39677;DHT22;27789;50.840;4.386;2023-06-22T05:02:11;21.40;99.90
39677;DHT22;27789;50.840;4.386;2023-06-22T05:04:37;21.40;99.90
39677;DHT22;27789;50.840;4.386;2023-06-22T05:07:03;21.40;99.90
39677;DHT22;27789;50.840;4.386;2023-06-22T05:09:29;21.40;99.90
39677;DHT22;27789;50.840;4.386;2023-06-22T05:11:55;21.40;99.90
39677;DHT22;27789;50.840;4.386;2023-06-22T05:14:22;21.40;99.90
39677;DHT22;27789;50.840;4.386;2023-06-22T05:16:47;21.40;99.90
39677;DHT22;27789;50.840;4.386;2023-06-22T05:19:13;21.40;99.90
39677;DHT22;27789;50.840;4.386;2023-06-22T05:21:39;21.40;99.90
39677;DHT22;27789;50.840;4.386;2023-06-22T05:24:04;21.30;99.90
39677;DHT22;27789;50.840;4.386;2023-06-22T05:26:30;21.30;99.90
39677;DHT22;27789;50.840;4.386;2023-06-22T05:28:56;21.20;99.90
39677;DHT22;27789;50.840;4.386;2023-06-22T05:31:22;21.10;99.90
39677;DHT22;27789;50.840;4.386;2023-06-22T05:33:48;21.10;99.90
39677;DHT22;27789;50.840;4.386;2023-06-22T05:36:14;21.10;99.90
39677;DHT22;27789;50.840;4.386;2023-06-22T05:38:40;21.00;99.90
39677;DHT22;27789;50.840;4.386;2023-06-22T05:41:06;20.90;99.90
39677;DHT22;27789;50.840;4.386;2023-06-22T05:43:31;20.80;99.90
39677;DHT22;27789;50.840;4.386;2023-06-22T05:45:57;20.70;99.90
39677;DHT22;27789;50.840;4.386;2023-06-22T05:48:22;20.70;99.90
39677;DHT22;27789;50.840;4.386;2023-06-22T05:50:48;20.70;99.90
39677;DHT22;27789;50.840;4.386;2023-06-22T05:53:14;20.60;99.90
39677;DHT22;27789;50.840;4.386;2023-06-22T05:55:40;20.60;99.90
39677;DHT22;27789;50.840;4.386;2023-06-22T05:58:05;20.50;99.90
39677;DHT22;27789;50.840;4.386;2023-06-22T06:00:31;20.50;99.90
39677;DHT22;27789;50.840;4.386;2023-06-22T06:02:56;20.60;99.90
39677;DHT22;27789;50.840;4.386;2023-06-22T06:05:22;20.60;99.90
39677;DHT22;27789;50.840;4.386;2023-06-22T06:07:49;20.70;99.90
39677;DHT22;27789;50.840;4.386;2023-06-22T06:10:14;20.60;99.90
39677;DHT22;27789;50.840;4.386;2023-06-22T06:12:40;20.60;99.90
39677;DHT22;27789;50.840;4.386;2023-06-22T06:15:05;20.50;99.90
39677;DHT22;27789;50.840;4.386;2023-06-22T06:17:31;20.50;99.90
39677;DHT22;27789;50.840;4.386;2023-06-22T06:19:58;20.50;99.90
39677;DHT22;27789;50.840;4.386;2023-06-22T06:22:24;20.50;99.90
39677;DHT22;27789;50.840;4.386;2023-06-22T06:24:49;20.50;99.90
39677;DHT22;27789;50.840;4.386;2023-06-22T06:27:15;20.50;99.90
39677;DHT22;27789;50.840;4.386;2023-06-22T06:29:40;20.60;99.90
39677;DHT22;27789;50.840;4.386;2023-06-22T06:32:06;20.70;99.90
39677;DHT22;27789;50.840;4.386;2023-06-22T06:34:32;20.70;99.90
39677;DHT22;27789;50.840;4.386;2023-06-22T06:36:57;20.80;99.90
39677;DHT22;27789;50.840;4.386;2023-06-22T06:39:23;20.80;99.90
39677;DHT22;27789;50.840;4.386;2023-06-22T06:41:48;20.90;99.90
39677;DHT22;27789;50.840;4.386;2023-06-22T06:44:14;21.00;99.90
39677;DHT22;27789;50.840;4.386;2023-06-22T06:46:39;21.00;99.90
39677;DHT22;27789;50.840;4.386;2023-06-22T06:49:05;21.10;99.90
39677;DHT22;27789;50.840;4.386;2023-06-22T06:51:30;21.20;99.90
39677;DHT22;27789;50.840;4.386;2023-06-22T06:53:56;21.20;99.90
39677;DHT22;27789;50.840;4.386;2023-06-22T06:56:21;21.30;99.90
39677;DHT22;27789;50.840;4.386;2023-06-22T06:58:49;21.50;99.90
39677;DHT22;27789;50.840;4.386;2023-06-22T07:01:15;21.60;99.90
39677;DHT22;27789;50.840;4.386;2023-06-22T07:03:41;21.60;99.90
39677;DHT22;27789;50.840;4.386;2023-06-22T07:06:08;21.70;99.90
39677;DHT22;27789;50.840;4.386;2023-06-22T07:08:33;21.70;99.90
39677;DHT22;27789;50.840;4.386;2023-06-22T07:11:00;21.80;99.90
39677;DHT22;27789;50.840;4.386;2023-06-22T07:13:26;21.70;99.90
39677;DHT22;27789;50.840;4.386;2023-06-22T07:15:51;21.80;99.90
39677;DHT22;27789;50.840;4.386;2023-06-22T07:18:17;21.80;99.90
39677;DHT22;27789;50.840;4.386;2023-06-22T07:20:42;22.00;99.90
39677;DHT22;27789;50.840;4.386;2023-06-22T07:23:08;22.00;99.90
39677;DHT22;27789;50.840;4.386;2023-06-22T07:25:33;22.10;99.90
39677;DHT22;27789;50.840;4.386;2023-06-22T07:28:00;22.20;99.90
39677;DHT22;27789;50.840;4.386;2023-06-22T07:30:27;22.20;99.90
39677;DHT22;27789;50.840;4.386;2023-06-22T07:32:52;22.30;99.90
39677;DHT22;27789;50.840;4.386;2023-06-22T07:35:18;22.30;99.90
39677;DHT22;27789;50.840;4.386;2023-06-22T07:37:44;22.40;99.90
39677;DHT22;27789;50.840;4.386;2023-06-22T07:40:09;22.30;99.90
39677;DHT22;27789;50.840;4.386;2023-06-22T07:42:35;22.40;99.90
39677;DHT22;27789;50.840;4.386;2023-06-22T07:45:01;22.40;99.90
39677;DHT22;27789;50.840;4.386;2023-06-22T07:47:27;22.40;99.90
39677;DHT22;27789;50.840;4.386;2023-06-22T07:49:54;22.40;99.90
39677;DHT22;27789;50.840;4.386;2023-06-22T07:52:20;22.40;99.90
39677;DHT22;27789;50.840;4.386;2023-06-22T07:54:46;22.40;99.90
39677;DHT22;27789;50.840;4.386;2023-06-22T07:57:12;22.40;99.90
39677;DHT22;27789;50.840;4.386;2023-06-22T07:59:37;22.40;99.90
39677;DHT22;27789;50.840;4.386;2023-06-22T08:02:03;22.40;99.90
39677;DHT22;27789;50.840;4.386;2023-06-22T08:04:29;22.30;99.90
39677;DHT22;27789;50.840;4.386;2023-06-22T08:06:56;22.30;99.90
39677;DHT22;27789;50.840;4.386;2023-06-22T08:09:21;22.30;99.90
39677;DHT22;27789;50.840;4.386;2023-06-22T08:11:47;22.40;99.90
39677;DHT22;27789;50.840;4.386;2023-06-22T08:14:13;22.40;99.90
39677;DHT22;27789;50.840;4.386;2023-06-22T08:16:40;22.40;99.90
39677;DHT22;27789;50.840;4.386;2023-06-22T08:19:06;22.40;99.90
39677;DHT22;27789;50.840;4.386;2023-06-22T08:21:34;22.30;99.90
39677;DHT22;27789;50.840;4.386;2023-06-22T08:23:59;22.40;99.90
39677;DHT22;27789;50.840;4.386;2023-06-22T08:26:25;22.30;99.90
39677;DHT22;27789;50.840;4.386;2023-06-22T08:28:50;22.30;99.90
39677;DHT22;27789;50.840;4.386;2023-06-22T08:31:15;22.30;99.90
39677;DHT22;27789;50.840;4.386;2023-06-22T08:33:43;22.30;99.90
39677;DHT22;27789;50.840;4.386;2023-06-22T08:36:10;22.20;99.90
39677;DHT22;27789;50.840;4.386;2023-06-22T08:38:38;22.20;99.90
39677;DHT22;27789;50.840;4.386;2023-06-22T08:41:03;22.20;99.90
39677;DHT22;27789;50.840;4.386;2023-06-22T08:43:29;22.20;99.90
39677;DHT22;27789;50.840;4.386;2023-06-22T08:45:54;22.10;99.90
39677;DHT22;27789;50.840;4.386;2023-06-22T08:48:20;22.10;99.90
39677;DHT22;27789;50.840;4.386;2023-06-22T08:50:45;22.10;99.90
39677;DHT22;27789;50.840;4.386;2023-06-22T08:53:11;22.10;99.90
39677;DHT22;27789;50.840;4.386;2023-06-22T08:55:36;22.00;99.90
39677;DHT22;27789;50.840;4.386;2023-06-22T08:58:02;22.10;99.90
39677;DHT22;27789;50.840;4.386;2023-06-22T09:00:29;22.10;99.90
39677;DHT22;27789;50.840;4.386;2023-06-22T09:02:58;22.10;99.90
39677;DHT22;27789;50.840;4.386;2023-06-22T09:05:24;22.00;99.90
39677;DHT22;27789;50.840;4.386;2023-06-22T09:07:51;22.10;99.90
39677;DHT22;27789;50.840;4.386;2023-06-22T09:10:16;22.10;99.90
39677;DHT22;27789;50.840;4.386;2023-06-22T09:12:42;22.10;99.90
39677;DHT22;27789;50.840;4.386;2023-06-22T09:15:08;22.10;99.90
39677;DHT22;27789;50.840;4.386;2023-06-22T09:17:34;22.10;99.90
39677;DHT22;27789;50.840;4.386;2023-06-22T09:20:00;22.10;99.90
39677;DHT22;27789;50.840;4.386;2023-06-22T09:22:27;22.10;99.90
39677;DHT22;27789;50.840;4.386;2023-06-22T09:24:55;22.00;99.90
39677;DHT22;27789;50.840;4.386;2023-06-22T09:27:21;22.00;99.90
39677;DHT22;27789;50.840;4.386;2023-06-22T09:29:47;22.00;99.90
39677;DHT22;27789;50.840;4.386;2023-06-22T09:32:13;22.00;99.90
39677;DHT22;27789;50.840;4.386;2023-06-22T09:34:38;21.90;99.90
39677;DHT22;27789;50.840;4.386;2023-06-22T09:37:04;21.80;99.90
39677;DHT22;27789;50.840;4.386;2023-06-22T09:39:29;21.70;99.90
39677;DHT22;27789;50.840;4.386;2023-06-22T09:41:55;21.60;99.90
39677;DHT22;27789;50.840;4.386;2023-06-22T09:44:20;21.50;99.90
39677;DHT22;27789;50.840;4.386;2023-06-22T09:46:46;21.40;99.90
39677;DHT22;27789;50.840;4.386;2023-06-22T09:49:11;21.30;99.90
39677;DHT22;27789;50.840;4.386;2023-06-22T09:51:37;21.20;99.90
39677;DHT22;27789;50.840;4.386;2023-06-22T09:54:02;21.10;99.90
39677;DHT22;27789;50.840;4.386;2023-06-22T09:56:28;20.90;99.90
39677;DHT22;27789;50.840;4.386;2023-06-22T09:58:55;20.80;99.90
39677;DHT22;27789;50.840;4.386;2023-06-22T10:01:20;20.70;99.90
39677;DHT22;27789;50.840;4.386;2023-06-22T10:03:46;20.40;99.90
39677;DHT22;27789;50.840;4.386;2023-06-22T10:06:12;20.20;99.90
39677;DHT22;27789;50.840;4.386;2023-06-22T10:08:37;20.10;99.90
39677;DHT22;27789;50.840;4.386;2023-06-22T10:11:04;20.10;99.90
39677;DHT22;27789;50.840;4.386;2023-06-22T10:13:29;20.10;99.90
39677;DHT22;27789;50.840;4.386;2023-06-22T10:15:55;20.10;99.90
39677;DHT22;27789;50.840;4.386;2023-06-22T10:18:21;20.10;99.90
39677;DHT22;27789;50.840;4.386;2023-06-22T10:20:47;20.10;99.90
39677;DHT22;27789;50.840;4.386;2023-06-22T10:23:13;20.00;99.90
39677;DHT22;27789;50.840;4.386;2023-06-22T10:25:38;19.90;99.90
39677;DHT22;27789;50.840;4.386;2023-06-22T10:28:03;19.90;99.90
39677;DHT22;27789;50.840;4.386;2023-06-22T10:30:29;19.80;99.90
39677;DHT22;27789;50.840;4.386;2023-06-22T10:32:54;19.80;99.90
39677;DHT22;27789;50.840;4.386;2023-06-22T10:35:20;19.70;99.90
39677;DHT22;27789;50.840;4.386;2023-06-22T10:37:46;19.60;99.90
39677;DHT22;27789;50.840;4.386;2023-06-22T10:40:15;19.60;99.90
39677;DHT22;27789;50.840;4.386;2023-06-22T10:42:41;19.60;99.90
39677;DHT22;27789;50.840;4.386;2023-06-22T10:45:06;19.50;99.90
39677;DHT22;27789;50.840;4.386;2023-06-22T10:47:33;19.40;99.90
39677;DHT22;27789;50.840;4.386;2023-06-22T10:49:58;19.40;99.90
39677;DHT22;27789;50.840;4.386;2023-06-22T10:52:24;19.40;99.90
39677;DHT22;27789;50.840;4.386;2023-06-22T10:54:49;19.40;99.90
39677;DHT22;27789;50.840;4.386;2023-06-22T10:57:15;19.40;99.90
39677;DHT22;27789;50.840;4.386;2023-06-22T10:59:40;19.50;99.90
39677;DHT22;27789;50.840;4.386;2023-06-22T11:02:06;19.40;99.90
39677;DHT22;27789;50.840;4.386;2023-06-22T11:04:31;19.40;99.90
39677;DHT22;27789;50.840;4.386;2023-06-22T11:06:57;19.40;99.90
39677;DHT22;27789;50.840;4.386;2023-06-22T11:09:22;19.40;99.90
39677;DHT22;27789;50.840;4.386;2023-06-22T11:11:49;19.50;99.90
39677;DHT22;27789;50.840;4.386;2023-06-22T11:14:15;19.50;99.90
39677;DHT22;27789;50.840;4.386;2023-06-22T11:16:40;19.60;99.90
39677;DHT22;27789;50.840;4.386;2023-06-22T11:19:06;19.60;99.90
39677;DHT22;27789;50.840;4.386;2023-06-22T11:21:31;19.70;99.90
39677;DHT22;27789;50.840;4.386;2023-06-22T11:26:41;19.70;99.90
39677;DHT22;27789;50.840;4.386;2023-06-22T11:29:07;19.70;99.90
39677;DHT22;27789;50.840;4.386;2023-06-22T11:31:33;19.70;99.90
39677;DHT22;27789;50.840;4.386;2023-06-22T11:33:59;19.80;99.90
39677;DHT22;27789;50.840;4.386;2023-06-22T11:36:25;19.80;99.90
39677;DHT22;27789;50.840;4.386;2023-06-22T11:38:50;19.80;99.90
39677;DHT22;27789;50.840;4.386;2023-06-22T11:41:16;19.80;99.90
39677;DHT22;27789;50.840;4.386;2023-06-22T11:43:42;19.80;99.90
39677;DHT22;27789;50.840;4.386;2023-06-22T11:46:07;19.80;99.90
39677;DHT22;27789;50.840;4.386;2023-06-22T11:48:33;19.70;99.90
39677;DHT22;27789;50.840;4.386;2023-06-22T11:50:58;19.70;99.90
39677;DHT22;27789;50.840;4.386;2023-06-22T11:53:24;19.80;99.90
39677;DHT22;27789;50.840;4.386;2023-06-22T11:55:50;19.80;99.90
39677;DHT22;27789;50.840;4.386;2023-06-22T11:58:16;19.80;99.90
39677;DHT22;27789;50.840;4.386;2023-06-22T12:00:41;19.80;99.90
39677;DHT22;27789;50.840;4.386;2023-06-22T12:03:07;19.80;99.90
39677;DHT22;27789;50.840;4.386;2023-06-22T12:05:32;19.80;99.90
39677;DHT22;27789;50.840;4.386;2023-06-22T12:07:58;19.70;99.90
39677;DHT22;27789;50.840;4.386;2023-06-22T12:10:25;19.70;99.90
39677;DHT22;27789;50.840;4.386;2023-06-22T12:12:50;19.70;99.90
39677;DHT22;27789;50.840;4.386;2023-06-22T12:15:16;19.60;99.90
39677;DHT22;27789;50.840;4.386;2023-06-22T12:17:41;19.60;99.90
39677;DHT22;27789;50.840;4.386;2023-06-22T12:20:07;19.60;99.90
39677;DHT22;27789;50.840;4.386;2023-06-22T12:22:33;19.60;99.90
39677;DHT22;27789;50.840;4.386;2023-06-22T12:24:59;19.60;99.90
39677;DHT22;27789;50.840;4.386;2023-06-22T12:27:24;19.60;99.90
39677;DHT22;27789;50.840;4.386;2023-06-22T12:29:50;19.60;99.90
39677;DHT22;27789;50.840;4.386;2023-06-22T12:32:16;19.50;99.90
39677;DHT22;27789;50.840;4.386;2023-06-22T12:34:41;19.50;99.90
39677;DHT22;27789;50.840;4.386;2023-06-22T12:37:07;19.50;99.90
39677;DHT22;27789;50.840;4.386;2023-06-22T12:39:33;19.50;99.90
39677;DHT22;27789;50.840;4.386;2023-06-22T12:41:58;19.40;99.90
39677;DHT22;27789;50.840;4.386;2023-06-22T12:44:24;19.40;99.90
39677;DHT22;27789;50.840;4.386;2023-06-22T12:46:49;19.40;99.90
39677;DHT22;27789;50.840;4.386;2023-06-22T12:49:15;19.40;99.90
39677;DHT22;27789;50.840;4.386;2023-06-22T12:51:40;19.40;99.90
39677;DHT22;27789;50.840;4.386;2023-06-22T12:54:07;19.40;99.90
39677;DHT22;27789;50.840;4.386;2023-06-22T12:56:33;19.40;99.90
39677;DHT22;27789;50.840;4.386;2023-06-22T12:58:58;19.40;99.90
39677;DHT22;27789;50.840;4.386;2023-06-22T13:01:27;19.40;99.90
39677;DHT22;27789;50.840;4.386;2023-06-22T13:03:53;19.40;99.90
39677;DHT22;27789;50.840;4.386;2023-06-22T13:06:18;19.40;99.90
39677;DHT22;27789;50.840;4.386;2023-06-22T13:08:46;19.40;99.90
39677;DHT22;27789;50.840;4.386;2023-06-22T13:11:12;19.40;99.90
39677;DHT22;27789;50.840;4.386;2023-06-22T13:13:38;19.40;99.90
39677;DHT22;27789;50.840;4.386;2023-06-22T13:16:03;19.40;99.90
39677;DHT22;27789;50.840;4.386;2023-06-22T13:18:29;19.40;99.90
39677;DHT22;27789;50.840;4.386;2023-06-22T13:20:54;19.50;99.90
39677;DHT22;27789;50.840;4.386;2023-06-22T13:23:20;19.50;99.90
39677;DHT22;27789;50.840;4.386;2023-06-22T13:25:46;19.60;99.90
39677;DHT22;27789;50.840;4.386;2023-06-22T13:28:12;19.60;99.90
39677;DHT22;27789;50.840;4.386;2023-06-22T13:30:39;19.70;99.90
39677;DHT22;27789;50.840;4.386;2023-06-22T13:33:04;19.70;99.90
39677;DHT22;27789;50.840;4.386;2023-06-22T13:35:30;19.70;99.90
39677;DHT22;27789;50.840;4.386;2023-06-22T13:37:55;19.70;99.90
39677;DHT22;27789;50.840;4.386;2023-06-22T13:40:21;19.70;99.90
39677;DHT22;27789;50.840;4.386;2023-06-22T13:42:47;19.60;99.90
39677;DHT22;27789;50.840;4.386;2023-06-22T13:45:12;19.50;99.90
39677;DHT22;27789;50.840;4.386;2023-06-22T13:47:38;19.40;99.90
39677;DHT22;27789;50.840;4.386;2023-06-22T13:50:03;19.40;99.90
39677;DHT22;27789;50.840;4.386;2023-06-22T13:52:29;19.40;99.90
39677;DHT22;27789;50.840;4.386;2023-06-22T13:54:54;19.50;99.90
39677;DHT22;27789;50.840;4.386;2023-06-22T13:57:20;19.50;99.90
39677;DHT22;27789;50.840;4.386;2023-06-22T13:59:45;19.50;99.90
39677;DHT22;27789;50.840;4.386;2023-06-22T14:02:11;19.50;99.90
39677;DHT22;27789;50.840;4.386;2023-06-22T14:04:36;19.50;99.90
39677;DHT22;27789;50.840;4.386;2023-06-22T14:07:02;19.50;99.90
39677;DHT22;27789;50.840;4.386;2023-06-22T14:09:27;19.50;99.90
39677;DHT22;27789;50.840;4.386;2023-06-22T14:11:54;19.40;99.90
39677;DHT22;27789;50.840;4.386;2023-06-22T14:14:20;19.40;99.90
39677;DHT22;27789;50.840;4.386;2023-06-22T14:16:45;19.40;99.90
39677;DHT22;27789;50.840;4.386;2023-06-22T14:19:11;19.40;99.90
39677;DHT22;27789;50.840;4.386;2023-06-22T14:21:36;19.40;99.90
39677;DHT22;27789;50.840;4.386;2023-06-22T14:24:02;19.40;99.90
39677;DHT22;27789;50.840;4.386;2023-06-22T14:26:27;19.40;99.90
39677;DHT22;27789;50.840;4.386;2023-06-22T14:28:53;19.40;99.90
39677;DHT22;27789;50.840;4.386;2023-06-22T14:31:19;19.30;99.90
39677;DHT22;27789;50.840;4.386;2023-06-22T14:33:48;19.30;99.90
39677;DHT22;27789;50.840;4.386;2023-06-22T14:36:14;19.30;99.90
39677;DHT22;27789;50.840;4.386;2023-06-22T14:38:40;19.30;99.90
39677;DHT22;27789;50.840;4.386;2023-06-22T14:41:05;19.30;99.90
39677;DHT22;27789;50.840;4.386;2023-06-22T14:43:31;19.30;99.90
39677;DHT22;27789;50.840;4.386;2023-06-22T14:45:56;19.30;99.90
39677;DHT22;27789;50.840;4.386;2023-06-22T14:48:22;19.20;99.90
39677;DHT22;27789;50.840;4.386;2023-06-22T14:50:47;19.20;99.90
39677;DHT22;27789;50.840;4.386;2023-06-22T14:53:13;19.20;99.90
39677;DHT22;27789;50.840;4.386;2023-06-22T14:55:39;19.30;99.90
39677;DHT22;27789;50.840;4.386;2023-06-22T14:58:05;19.30;99.90
39677;DHT22;27789;50.840;4.386;2023-06-22T15:00:30;19.30;99.90
39677;DHT22;27789;50.840;4.386;2023-06-22T15:02:56;19.40;99.90
39677;DHT22;27789;50.840;4.386;2023-06-22T15:05:21;19.40;99.90
39677;DHT22;27789;50.840;4.386;2023-06-22T15:07:49;19.40;99.90
39677;DHT22;27789;50.840;4.386;2023-06-22T15:10:14;19.40;99.90
39677;DHT22;27789;50.840;4.386;2023-06-22T15:12:40;19.40;99.90
39677;DHT22;27789;50.840;4.386;2023-06-22T15:15:06;19.50;99.90
39677;DHT22;27789;50.840;4.386;2023-06-22T15:17:31;19.50;99.90
39677;DHT22;27789;50.840;4.386;2023-06-22T15:19:57;19.50;99.90
39677;DHT22;27789;50.840;4.386;2023-06-22T15:22:23;19.50;99.90
39677;DHT22;27789;50.840;4.386;2023-06-22T15:24:48;19.50;99.90
39677;DHT22;27789;50.840;4.386;2023-06-22T15:27:14;19.60;99.90
39677;DHT22;27789;50.840;4.386;2023-06-22T15:29:39;19.50;99.90